sensor_id;sensor_type;location;lat;lon;timestamp;P1;durP1;ratioP1;P2;durP2;ratioP2
18879;SDS011;9572;52.378;13.404;2024-03-17T00:00:47;10.00;;;1.77;;
18879;SDS011;9572;52.378;13.404;2024-03-17T00:03:14;10.57;;;1.70;;
18879;SDS011;9572;52.378;13.404;2024-03-17T00:05:41;8.60;;;2.17;;
18879;SDS011;9572;52.378;13.404;2024-03-17T00:08:08;11.27;;;2.00;;
18879;SDS011;9572;52.378;13.404;2024-03-17T00:10:34;11.10;;;1.70;;
18879;SDS011;9572;52.378;13.404;2024-03-17T00:13:00;10.40;;;1.60;;
18879;SDS011;9572;52.378;13.404;2024-03-17T00:15:26;10.77;;;1.70;;
18879;SDS011;9572;52.378;13.404;2024-03-17T00:17:53;10.00;;;1.93;;
18879;SDS011;9572;52.378;13.404;2024-03-17T00:20:19;13.97;;;2.30;;
18879;SDS011;9572;52.378;13.404;2024-03-17T00:22:48;11.77;;;1.77;;
18879;SDS011;9572;52.378;13.404;2024-03-17T00:25:16;11.33;;;1.80;;
18879;SDS011;9572;52.378;13.404;2024-03-17T00:27:43;11.53;;;2.13;;
18879;SDS011;9572;52.378;13.404;2024-03-17T00:30:10;10.73;;;1.50;;
18879;SDS011;9572;52.378;13.404;2024-03-17T00:32:38;8.30;;;1.50;;
18879;SDS011;9572;52.378;13.404;2024-03-17T00:35:05;13.43;;;1.90;;
18879;SDS011;9572;52.378;13.404;2024-03-17T00:37:32;11.07;;;2.00;;
18879;SDS011;9572;52.378;13.404;2024-03-17T00:40:01;9.00;;;1.20;;
18879;SDS011;9572;52.378;13.404;2024-03-17T00:42:27;10.87;;;1.90;;
18879;SDS011;9572;52.378;13.404;2024-03-17T00:44:54;9.33;;;1.70;;
18879;SDS011;9572;52.378;13.404;2024-03-17T00:47:20;9.43;;;1.40;;
18879;SDS011;9572;52.378;13.404;2024-03-17T00:49:46;10.73;;;1.63;;
18879;SDS011;9572;52.378;13.404;2024-03-17T00:52:15;6.00;;;1.50;;
18879;SDS011;9572;52.378;13.404;2024-03-17T00:54:41;12.67;;;1.90;;
18879;SDS011;9572;52.378;13.404;2024-03-17T00:57:08;9.37;;;1.53;;
18879;SDS011;9572;52.378;13.404;2024-03-17T00:59:35;7.57;;;1.73;;
18879;SDS011;9572;52.378;13.404;2024-03-17T01:02:01;10.20;;;1.60;;
18879;SDS011;9572;52.378;13.404;2024-03-17T01:04:28;10.37;;;1.73;;
18879;SDS011;9572;52.378;13.404;2024-03-17T01:06:53;12.20;;;1.93;;
18879;SDS011;9572;52.378;13.404;2024-03-17T01:09:20;10.63;;;1.93;;
18879;SDS011;9572;52.378;13.404;2024-03-17T01:11:46;13.40;;;1.80;;
18879;SDS011;9572;52.378;13.404;2024-03-17T01:14:14;10.83;;;1.63;;
18879;SDS011;9572;52.378;13.404;2024-03-17T01:16:40;13.90;;;1.80;;
18879;SDS011;9572;52.378;13.404;2024-03-17T01:19:07;8.53;;;1.50;;
18879;SDS011;9572;52.378;13.404;2024-03-17T01:21:33;10.73;;;1.73;;
18879;SDS011;9572;52.378;13.404;2024-03-17T01:23:59;7.47;;;1.53;;
18879;SDS011;9572;52.378;13.404;2024-03-17T01:26:25;9.77;;;2.43;;
18879;SDS011;9572;52.378;13.404;2024-03-17T01:28:52;17.63;;;2.03;;
18879;SDS011;9572;52.378;13.404;2024-03-17T01:31:19;10.53;;;2.30;;
18879;SDS011;9572;52.378;13.404;2024-03-17T01:33:45;17.00;;;2.77;;
18879;SDS011;9572;52.378;13.404;2024-03-17T01:36:11;9.73;;;2.13;;
18879;SDS011;9572;52.378;13.404;2024-03-17T01:38:38;14.37;;;2.47;;
18879;SDS011;9572;52.378;13.404;2024-03-17T01:41:04;11.93;;;1.87;;
18879;SDS011;9572;52.378;13.404;2024-03-17T01:43:31;23.07;;;2.00;;
18879;SDS011;9572;52.378;13.404;2024-03-17T01:45:57;10.13;;;1.63;;
18879;SDS011;9572;52.378;13.404;2024-03-17T01:48:26;18.83;;;1.83;;
18879;SDS011;9572;52.378;13.404;2024-03-17T01:50:52;6.47;;;1.63;;
18879;SDS011;9572;52.378;13.404;2024-03-17T01:53:21;8.20;;;1.90;;
18879;SDS011;9572;52.378;13.404;2024-03-17T01:55:49;9.07;;;1.73;;
18879;SDS011;9572;52.378;13.404;2024-03-17T01:58:16;11.17;;;1.83;;
18879;SDS011;9572;52.378;13.404;2024-03-17T02:00:45;12.57;;;1.90;;
18879;SDS011;9572;52.378;13.404;2024-03-17T02:03:12;7.60;;;1.80;;
18879;SDS011;9572;52.378;13.404;2024-03-17T02:05:39;8.73;;;1.43;;
18879;SDS011;9572;52.378;13.404;2024-03-17T02:08:06;9.13;;;1.90;;
18879;SDS011;9572;52.378;13.404;2024-03-17T02:10:32;14.37;;;1.90;;
18879;SDS011;9572;52.378;13.404;2024-03-17T02:12:59;14.47;;;2.03;;
18879;SDS011;9572;52.378;13.404;2024-03-17T02:15:25;10.40;;;1.63;;
18879;SDS011;9572;52.378;13.404;2024-03-17T02:17:52;9.90;;;1.60;;
18879;SDS011;9572;52.378;13.404;2024-03-17T02:20:17;7.93;;;1.90;;
18879;SDS011;9572;52.378;13.404;2024-03-17T02:22:46;9.93;;;1.60;;
18879;SDS011;9572;52.378;13.404;2024-03-17T02:25:11;12.03;;;1.77;;
18879;SDS011;9572;52.378;13.404;2024-03-17T02:27:38;9.77;;;1.60;;
18879;SDS011;9572;52.378;13.404;2024-03-17T02:30:04;10.33;;;2.03;;
18879;SDS011;9572;52.378;13.404;2024-03-17T02:32:33;10.03;;;1.77;;
18879;SDS011;9572;52.378;13.404;2024-03-17T02:34:59;7.03;;;1.17;;
18879;SDS011;9572;52.378;13.404;2024-03-17T02:37:26;8.87;;;1.90;;
18879;SDS011;9572;52.378;13.404;2024-03-17T02:39:53;8.87;;;1.30;;
18879;SDS011;9572;52.378;13.404;2024-03-17T02:42:20;14.67;;;2.10;;
18879;SDS011;9572;52.378;13.404;2024-03-17T02:44:45;11.27;;;1.80;;
18879;SDS011;9572;52.378;13.404;2024-03-17T02:47:12;12.00;;;1.83;;
18879;SDS011;9572;52.378;13.404;2024-03-17T02:49:40;10.80;;;2.70;;
18879;SDS011;9572;52.378;13.404;2024-03-17T02:52:09;8.63;;;1.57;;
18879;SDS011;9572;52.378;13.404;2024-03-17T02:54:37;7.77;;;1.60;;
18879;SDS011;9572;52.378;13.404;2024-03-17T02:57:06;8.77;;;1.80;;
18879;SDS011;9572;52.378;13.404;2024-03-17T02:59:33;10.93;;;1.50;;
18879;SDS011;9572;52.378;13.404;2024-03-17T03:01:59;9.37;;;1.70;;
18879;SDS011;9572;52.378;13.404;2024-03-17T03:04:26;5.13;;;1.37;;
18879;SDS011;9572;52.378;13.404;2024-03-17T03:06:53;7.23;;;1.50;;
18879;SDS011;9572;52.378;13.404;2024-03-17T03:09:20;12.83;;;2.33;;
18879;SDS011;9572;52.378;13.404;2024-03-17T03:11:56;8.20;;;2.10;;
18879;SDS011;9572;52.378;13.404;2024-03-17T03:14:24;8.33;;;2.90;;
18879;SDS011;9572;52.378;13.404;2024-03-17T03:16:51;13.47;;;1.97;;
18879;SDS011;9572;52.378;13.404;2024-03-17T03:19:18;6.77;;;1.50;;
18879;SDS011;9572;52.378;13.404;2024-03-17T03:21:44;14.90;;;1.83;;
18879;SDS011;9572;52.378;13.404;2024-03-17T03:24:11;13.70;;;2.30;;
18879;SDS011;9572;52.378;13.404;2024-03-17T03:26:39;10.43;;;2.07;;
18879;SDS011;9572;52.378;13.404;2024-03-17T03:29:06;14.03;;;2.47;;
18879;SDS011;9572;52.378;13.404;2024-03-17T03:31:34;7.73;;;1.77;;
18879;SDS011;9572;52.378;13.404;2024-03-17T03:34:00;9.37;;;1.70;;
18879;SDS011;9572;52.378;13.404;2024-03-17T03:36:28;8.10;;;1.70;;
18879;SDS011;9572;52.378;13.404;2024-03-17T03:38:55;11.90;;;1.40;;
18879;SDS011;9572;52.378;13.404;2024-03-17T03:41:22;12.73;;;2.00;;
18879;SDS011;9572;52.378;13.404;2024-03-17T03:43:50;10.27;;;1.60;;
18879;SDS011;9572;52.378;13.404;2024-03-17T03:46:17;8.17;;;1.63;;
18879;SDS011;9572;52.378;13.404;2024-03-17T03:48:45;13.60;;;2.23;;
18879;SDS011;9572;52.378;13.404;2024-03-17T03:51:12;15.70;;;2.40;;
18879;SDS011;9572;52.378;13.404;2024-03-17T03:53:39;13.50;;;1.80;;
18879;SDS011;9572;52.378;13.404;2024-03-17T03:56:07;9.63;;;1.47;;
18879;SDS011;9572;52.378;13.404;2024-03-17T03:58:35;12.83;;;2.03;;
18879;SDS011;9572;52.378;13.404;2024-03-17T04:01:04;8.33;;;1.37;;
18879;SDS011;9572;52.378;13.404;2024-03-17T04:03:31;19.13;;;1.97;;
18879;SDS011;9572;52.378;13.404;2024-03-17T04:06:04;14.27;;;2.20;;
18879;SDS011;9572;52.378;13.404;2024-03-17T04:08:32;14.47;;;1.50;;
18879;SDS011;9572;52.378;13.404;2024-03-17T04:10:59;8.53;;;1.67;;
18879;SDS011;9572;52.378;13.404;2024-03-17T04:13:27;10.90;;;1.80;;
18879;SDS011;9572;52.378;13.404;2024-03-17T04:15:54;17.67;;;2.20;;
18879;SDS011;9572;52.378;13.404;2024-03-17T04:18:21;16.43;;;2.30;;
18879;SDS011;9572;52.378;13.404;2024-03-17T04:20:49;8.90;;;1.87;;
18879;SDS011;9572;52.378;13.404;2024-03-17T04:23:18;18.43;;;2.97;;
18879;SDS011;9572;52.378;13.404;2024-03-17T04:25:44;12.77;;;1.43;;
18879;SDS011;9572;52.378;13.404;2024-03-17T04:28:11;11.40;;;1.33;;
18879;SDS011;9572;52.378;13.404;2024-03-17T04:30:39;12.30;;;2.13;;
18879;SDS011;9572;52.378;13.404;2024-03-17T04:33:05;18.70;;;2.00;;
18879;SDS011;9572;52.378;13.404;2024-03-17T04:35:35;12.70;;;2.30;;
18879;SDS011;9572;52.378;13.404;2024-03-17T04:38:02;15.23;;;1.87;;
18879;SDS011;9572;52.378;13.404;2024-03-17T04:40:30;12.37;;;1.77;;
18879;SDS011;9572;52.378;13.404;2024-03-17T04:42:57;16.33;;;2.47;;
18879;SDS011;9572;52.378;13.404;2024-03-17T04:45:24;13.37;;;1.87;;
18879;SDS011;9572;52.378;13.404;2024-03-17T04:47:51;16.43;;;2.70;;
18879;SDS011;9572;52.378;13.404;2024-03-17T04:50:18;20.83;;;2.27;;
18879;SDS011;9572;52.378;13.404;2024-03-17T04:52:46;11.30;;;2.07;;
18879;SDS011;9572;52.378;13.404;2024-03-17T04:55:14;15.57;;;2.10;;
18879;SDS011;9572;52.378;13.404;2024-03-17T04:57:43;12.13;;;1.90;;
18879;SDS011;9572;52.378;13.404;2024-03-17T05:00:10;12.73;;;2.03;;
18879;SDS011;9572;52.378;13.404;2024-03-17T05:02:37;10.90;;;2.23;;
18879;SDS011;9572;52.378;13.404;2024-03-17T05:05:04;11.83;;;1.80;;
18879;SDS011;9572;52.378;13.404;2024-03-17T05:07:33;13.63;;;2.53;;
18879;SDS011;9572;52.378;13.404;2024-03-17T05:09:59;15.73;;;1.93;;
18879;SDS011;9572;52.378;13.404;2024-03-17T05:12:26;10.30;;;1.77;;
18879;SDS011;9572;52.378;13.404;2024-03-17T05:14:54;10.47;;;1.87;;
18879;SDS011;9572;52.378;13.404;2024-03-17T05:17:21;15.20;;;2.50;;
18879;SDS011;9572;52.378;13.404;2024-03-17T05:19:48;12.13;;;2.03;;
18879;SDS011;9572;52.378;13.404;2024-03-17T05:22:14;15.83;;;2.20;;
18879;SDS011;9572;52.378;13.404;2024-03-17T05:24:41;15.10;;;1.90;;
18879;SDS011;9572;52.378;13.404;2024-03-17T05:27:08;16.47;;;1.87;;
18879;SDS011;9572;52.378;13.404;2024-03-17T05:29:34;17.40;;;2.30;;
18879;SDS011;9572;52.378;13.404;2024-03-17T05:32:04;11.37;;;2.00;;
18879;SDS011;9572;52.378;13.404;2024-03-17T05:34:31;22.33;;;2.83;;
18879;SDS011;9572;52.378;13.404;2024-03-17T05:36:59;10.03;;;2.57;;
18879;SDS011;9572;52.378;13.404;2024-03-17T05:39:26;9.60;;;1.83;;
18879;SDS011;9572;52.378;13.404;2024-03-17T05:41:53;5.00;;;1.60;;
18879;SDS011;9572;52.378;13.404;2024-03-17T05:44:20;20.30;;;2.73;;
18879;SDS011;9572;52.378;13.404;2024-03-17T05:46:46;15.97;;;2.13;;
18879;SDS011;9572;52.378;13.404;2024-03-17T05:49:15;9.80;;;1.90;;
18879;SDS011;9572;52.378;13.404;2024-03-17T05:51:41;15.33;;;2.50;;
18879;SDS011;9572;52.378;13.404;2024-03-17T05:54:08;10.07;;;1.70;;
18879;SDS011;9572;52.378;13.404;2024-03-17T05:56:36;11.37;;;1.93;;
18879;SDS011;9572;52.378;13.404;2024-03-17T05:59:04;10.17;;;2.27;;
18879;SDS011;9572;52.378;13.404;2024-03-17T06:01:31;9.27;;;2.60;;
18879;SDS011;9572;52.378;13.404;2024-03-17T06:03:58;11.37;;;1.73;;
18879;SDS011;9572;52.378;13.404;2024-03-17T06:06:26;15.87;;;2.40;;
18879;SDS011;9572;52.378;13.404;2024-03-17T06:08:53;18.40;;;2.60;;
18879;SDS011;9572;52.378;13.404;2024-03-17T06:11:19;15.27;;;2.40;;
18879;SDS011;9572;52.378;13.404;2024-03-17T06:13:46;9.20;;;2.17;;
18879;SDS011;9572;52.378;13.404;2024-03-17T06:16:13;14.03;;;2.07;;
18879;SDS011;9572;52.378;13.404;2024-03-17T06:18:39;16.40;;;1.87;;
18879;SDS011;9572;52.378;13.404;2024-03-17T06:21:06;14.43;;;2.13;;
18879;SDS011;9572;52.378;13.404;2024-03-17T06:23:35;9.53;;;1.80;;
18879;SDS011;9572;52.378;13.404;2024-03-17T06:26:02;13.07;;;1.93;;
18879;SDS011;9572;52.378;13.404;2024-03-17T06:28:30;20.00;;;2.13;;
18879;SDS011;9572;52.378;13.404;2024-03-17T06:30:58;14.20;;;2.23;;
18879;SDS011;9572;52.378;13.404;2024-03-17T06:33:26;14.60;;;2.07;;
18879;SDS011;9572;52.378;13.404;2024-03-17T06:35:54;11.77;;;2.10;;
18879;SDS011;9572;52.378;13.404;2024-03-17T06:38:21;13.00;;;2.27;;
18879;SDS011;9572;52.378;13.404;2024-03-17T06:40:49;18.37;;;2.43;;
18879;SDS011;9572;52.378;13.404;2024-03-17T06:43:17;18.03;;;2.60;;
18879;SDS011;9572;52.378;13.404;2024-03-17T06:45:52;12.10;;;1.80;;
18879;SDS011;9572;52.378;13.404;2024-03-17T06:48:20;11.30;;;1.97;;
18879;SDS011;9572;52.378;13.404;2024-03-17T06:50:47;7.63;;;1.63;;
18879;SDS011;9572;52.378;13.404;2024-03-17T06:53:14;19.20;;;2.50;;
18879;SDS011;9572;52.378;13.404;2024-03-17T06:55:40;16.93;;;2.50;;
18879;SDS011;9572;52.378;13.404;2024-03-17T06:58:08;14.67;;;2.20;;
18879;SDS011;9572;52.378;13.404;2024-03-17T07:00:35;22.00;;;2.40;;
18879;SDS011;9572;52.378;13.404;2024-03-17T07:03:02;12.57;;;2.87;;
18879;SDS011;9572;52.378;13.404;2024-03-17T07:05:29;11.70;;;2.27;;
18879;SDS011;9572;52.378;13.404;2024-03-17T07:07:57;12.10;;;2.30;;
18879;SDS011;9572;52.378;13.404;2024-03-17T07:10:24;17.47;;;2.10;;
18879;SDS011;9572;52.378;13.404;2024-03-17T07:12:51;15.77;;;2.50;;
18879;SDS011;9572;52.378;13.404;2024-03-17T07:15:19;12.63;;;1.90;;
18879;SDS011;9572;52.378;13.404;2024-03-17T07:17:46;15.13;;;2.20;;
18879;SDS011;9572;52.378;13.404;2024-03-17T07:20:13;20.73;;;2.30;;
18879;SDS011;9572;52.378;13.404;2024-03-17T07:22:40;19.30;;;2.83;;
18879;SDS011;9572;52.378;13.404;2024-03-17T07:25:07;14.23;;;2.23;;
18879;SDS011;9572;52.378;13.404;2024-03-17T07:27:34;13.33;;;2.30;;
18879;SDS011;9572;52.378;13.404;2024-03-17T07:30:03;14.83;;;2.27;;
18879;SDS011;9572;52.378;13.404;2024-03-17T07:32:33;14.33;;;2.67;;
18879;SDS011;9572;52.378;13.404;2024-03-17T07:34:59;13.33;;;2.30;;
18879;SDS011;9572;52.378;13.404;2024-03-17T07:37:26;19.43;;;2.87;;
18879;SDS011;9572;52.378;13.404;2024-03-17T07:39:53;12.17;;;2.60;;
18879;SDS011;9572;52.378;13.404;2024-03-17T07:42:19;20.37;;;2.47;;
18879;SDS011;9572;52.378;13.404;2024-03-17T07:44:46;8.50;;;1.60;;
18879;SDS011;9572;52.378;13.404;2024-03-17T07:47:13;13.97;;;1.70;;
18879;SDS011;9572;52.378;13.404;2024-03-17T07:49:41;13.73;;;2.20;;
18879;SDS011;9572;52.378;13.404;2024-03-17T07:52:11;19.27;;;2.13;;
18879;SDS011;9572;52.378;13.404;2024-03-17T07:54:38;14.27;;;2.13;;
18879;SDS011;9572;52.378;13.404;2024-03-17T07:57:05;19.70;;;2.40;;
18879;SDS011;9572;52.378;13.404;2024-03-17T07:59:34;13.10;;;2.70;;
18879;SDS011;9572;52.378;13.404;2024-03-17T08:02:00;10.37;;;2.00;;
18879;SDS011;9572;52.378;13.404;2024-03-17T08:04:27;14.13;;;2.30;;
18879;SDS011;9572;52.378;13.404;2024-03-17T08:06:56;12.60;;;1.70;;
18879;SDS011;9572;52.378;13.404;2024-03-17T08:09:22;15.70;;;2.50;;
18879;SDS011;9572;52.378;13.404;2024-03-17T08:11:49;12.23;;;2.20;;
18879;SDS011;9572;52.378;13.404;2024-03-17T08:14:16;16.33;;;2.00;;
18879;SDS011;9572;52.378;13.404;2024-03-17T08:16:42;13.67;;;1.67;;
18879;SDS011;9572;52.378;13.404;2024-03-17T08:19:09;15.10;;;1.77;;
18879;SDS011;9572;52.378;13.404;2024-03-17T08:21:36;14.80;;;1.90;;
18879;SDS011;9572;52.378;13.404;2024-03-17T08:24:04;8.57;;;2.27;;
18879;SDS011;9572;52.378;13.404;2024-03-17T08:26:31;11.33;;;1.60;;
18879;SDS011;9572;52.378;13.404;2024-03-17T08:28:58;9.40;;;1.70;;
18879;SDS011;9572;52.378;13.404;2024-03-17T08:31:25;12.53;;;1.77;;
18879;SDS011;9572;52.378;13.404;2024-03-17T08:33:52;13.07;;;1.77;;
18879;SDS011;9572;52.378;13.404;2024-03-17T08:36:19;11.17;;;1.70;;
18879;SDS011;9572;52.378;13.404;2024-03-17T08:38:47;13.27;;;1.97;;
18879;SDS011;9572;52.378;13.404;2024-03-17T08:41:20;17.83;;;1.77;;
18879;SDS011;9572;52.378;13.404;2024-03-17T08:43:47;11.77;;;2.03;;
18879;SDS011;9572;52.378;13.404;2024-03-17T08:46:17;20.00;;;2.40;;
18879;SDS011;9572;52.378;13.404;2024-03-17T08:48:48;12.40;;;1.73;;
18879;SDS011;9572;52.378;13.404;2024-03-17T08:51:16;8.80;;;1.70;;
18879;SDS011;9572;52.378;13.404;2024-03-17T08:53:49;14.57;;;2.30;;
18879;SDS011;9572;52.378;13.404;2024-03-17T08:56:19;11.47;;;1.90;;
18879;SDS011;9572;52.378;13.404;2024-03-17T08:58:48;9.20;;;1.93;;
18879;SDS011;9572;52.378;13.404;2024-03-17T09:01:15;10.27;;;1.40;;
18879;SDS011;9572;52.378;13.404;2024-03-17T09:03:42;7.83;;;1.30;;
18879;SDS011;9572;52.378;13.404;2024-03-17T09:06:13;7.83;;;2.33;;
18879;SDS011;9572;52.378;13.404;2024-03-17T09:08:42;7.23;;;1.40;;
18879;SDS011;9572;52.378;13.404;2024-03-17T09:11:09;12.97;;;2.20;;
18879;SDS011;9572;52.378;13.404;2024-03-17T09:13:40;10.77;;;1.73;;
18879;SDS011;9572;52.378;13.404;2024-03-17T09:16:07;13.23;;;2.00;;
18879;SDS011;9572;52.378;13.404;2024-03-17T09:18:36;6.03;;;1.40;;
18879;SDS011;9572;52.378;13.404;2024-03-17T09:21:04;11.83;;;2.00;;
18879;SDS011;9572;52.378;13.404;2024-03-17T09:23:32;7.80;;;1.57;;
18879;SDS011;9572;52.378;13.404;2024-03-17T09:26:00;11.03;;;1.67;;
18879;SDS011;9572;52.378;13.404;2024-03-17T09:28:28;10.90;;;1.50;;
18879;SDS011;9572;52.378;13.404;2024-03-17T09:30:56;8.13;;;1.80;;
18879;SDS011;9572;52.378;13.404;2024-03-17T09:33:24;8.80;;;1.33;;
18879;SDS011;9572;52.378;13.404;2024-03-17T09:35:55;10.83;;;1.40;;
18879;SDS011;9572;52.378;13.404;2024-03-17T09:38:22;8.37;;;1.77;;
18879;SDS011;9572;52.378;13.404;2024-03-17T09:40:49;8.63;;;2.07;;
18879;SDS011;9572;52.378;13.404;2024-03-17T09:43:18;16.00;;;2.80;;
18879;SDS011;9572;52.378;13.404;2024-03-17T09:45:45;9.93;;;1.60;;
18879;SDS011;9572;52.378;13.404;2024-03-17T09:48:15;9.53;;;1.40;;
18879;SDS011;9572;52.378;13.404;2024-03-17T09:50:45;6.13;;;1.23;;
18879;SDS011;9572;52.378;13.404;2024-03-17T09:53:17;7.70;;;1.57;;
18879;SDS011;9572;52.378;13.404;2024-03-17T09:55:49;7.90;;;1.53;;
18879;SDS011;9572;52.378;13.404;2024-03-17T09:58:17;8.97;;;1.30;;
18879;SDS011;9572;52.378;13.404;2024-03-17T10:00:44;10.00;;;1.50;;
18879;SDS011;9572;52.378;13.404;2024-03-17T10:03:11;9.70;;;1.40;;
18879;SDS011;9572;52.378;13.404;2024-03-17T10:05:40;9.43;;;1.37;;
18879;SDS011;9572;52.378;13.404;2024-03-17T10:08:06;6.33;;;1.30;;
18879;SDS011;9572;52.378;13.404;2024-03-17T10:10:48;5.70;;;1.37;;
18879;SDS011;9572;52.378;13.404;2024-03-17T10:13:19;5.27;;;1.43;;
18879;SDS011;9572;52.378;13.404;2024-03-17T10:15:47;6.30;;;1.23;;
18879;SDS011;9572;52.378;13.404;2024-03-17T10:18:19;5.17;;;0.90;;
18879;SDS011;9572;52.378;13.404;2024-03-17T10:20:49;7.40;;;1.13;;
18879;SDS011;9572;52.378;13.404;2024-03-17T10:23:21;6.63;;;1.53;;
18879;SDS011;9572;52.378;13.404;2024-03-17T10:25:48;7.47;;;1.57;;
18879;SDS011;9572;52.378;13.404;2024-03-17T10:28:15;5.40;;;1.07;;
18879;SDS011;9572;52.378;13.404;2024-03-17T10:30:56;5.57;;;1.10;;
18879;SDS011;9572;52.378;13.404;2024-03-17T10:33:24;4.03;;;0.93;;
18879;SDS011;9572;52.378;13.404;2024-03-17T10:35:59;6.10;;;1.20;;
18879;SDS011;9572;52.378;13.404;2024-03-17T10:38:26;6.00;;;1.37;;
18879;SDS011;9572;52.378;13.404;2024-03-17T10:40:53;7.57;;;1.30;;
18879;SDS011;9572;52.378;13.404;2024-03-17T10:43:20;4.43;;;1.23;;
18879;SDS011;9572;52.378;13.404;2024-03-17T10:45:51;5.40;;;1.10;;
18879;SDS011;9572;52.378;13.404;2024-03-17T10:48:19;11.13;;;1.87;;
18879;SDS011;9572;52.378;13.404;2024-03-17T10:50:47;9.03;;;1.77;;
18879;SDS011;9572;52.378;13.404;2024-03-17T10:53:18;8.67;;;1.80;;
18879;SDS011;9572;52.378;13.404;2024-03-17T10:55:51;10.77;;;1.83;;
18879;SDS011;9572;52.378;13.404;2024-03-17T10:58:33;8.97;;;1.47;;
18879;SDS011;9572;52.378;13.404;2024-03-17T11:01:02;8.00;;;1.60;;
18879;SDS011;9572;52.378;13.404;2024-03-17T11:03:31;7.90;;;1.10;;
18879;SDS011;9572;52.378;13.404;2024-03-17T11:05:59;8.63;;;1.40;;
18879;SDS011;9572;52.378;13.404;2024-03-17T11:08:30;7.60;;;1.13;;
18879;SDS011;9572;52.378;13.404;2024-03-17T11:10:58;8.33;;;1.37;;
18879;SDS011;9572;52.378;13.404;2024-03-17T11:13:25;15.70;;;2.00;;
18879;SDS011;9572;52.378;13.404;2024-03-17T11:15:53;6.77;;;1.43;;
18879;SDS011;9572;52.378;13.404;2024-03-17T11:18:28;3.97;;;1.20;;
18879;SDS011;9572;52.378;13.404;2024-03-17T11:21:05;10.90;;;1.60;;
18879;SDS011;9572;52.378;13.404;2024-03-17T11:23:37;6.67;;;1.27;;
18879;SDS011;9572;52.378;13.404;2024-03-17T11:26:05;5.93;;;1.60;;
18879;SDS011;9572;52.378;13.404;2024-03-17T11:28:46;6.80;;;1.65;;
18879;SDS011;9572;52.378;13.404;2024-03-17T11:34:25;4.10;;;1.58;;
18879;SDS011;9572;52.378;13.404;2024-03-17T11:36:53;6.43;;;1.30;;
18879;SDS011;9572;52.378;13.404;2024-03-17T11:39:22;6.28;;;1.10;;
18879;SDS011;9572;52.378;13.404;2024-03-17T11:42:22;3.60;;;1.23;;
18879;SDS011;9572;52.378;13.404;2024-03-17T11:45:02;6.80;;;1.13;;
18879;SDS011;9572;52.378;13.404;2024-03-17T11:47:35;8.13;;;1.40;;
18879;SDS011;9572;52.378;13.404;2024-03-17T11:50:03;5.80;;;1.60;;
18879;SDS011;9572;52.378;13.404;2024-03-17T11:52:31;4.60;;;1.27;;
18879;SDS011;9572;52.378;13.404;2024-03-17T11:54:58;6.87;;;1.37;;
18879;SDS011;9572;52.378;13.404;2024-03-17T11:57:25;5.63;;;1.20;;
18879;SDS011;9572;52.378;13.404;2024-03-17T11:59:52;5.50;;;1.77;;
18879;SDS011;9572;52.378;13.404;2024-03-17T12:02:20;8.67;;;1.53;;
18879;SDS011;9572;52.378;13.404;2024-03-17T12:04:47;3.47;;;1.00;;
18879;SDS011;9572;52.378;13.404;2024-03-17T12:07:15;8.43;;;1.60;;
18879;SDS011;9572;52.378;13.404;2024-03-17T12:09:42;6.93;;;1.23;;
18879;SDS011;9572;52.378;13.404;2024-03-17T12:12:14;8.03;;;1.70;;
18879;SDS011;9572;52.378;13.404;2024-03-17T12:14:44;5.67;;;1.37;;
18879;SDS011;9572;52.378;13.404;2024-03-17T12:17:11;5.97;;;1.57;;
18879;SDS011;9572;52.378;13.404;2024-03-17T12:19:39;4.87;;;1.13;;
18879;SDS011;9572;52.378;13.404;2024-03-17T12:22:07;6.70;;;1.47;;
18879;SDS011;9572;52.378;13.404;2024-03-17T12:24:34;13.10;;;1.70;;
18879;SDS011;9572;52.378;13.404;2024-03-17T12:27:04;7.97;;;1.80;;
18879;SDS011;9572;52.378;13.404;2024-03-17T12:29:33;10.23;;;2.17;;
18879;SDS011;9572;52.378;13.404;2024-03-17T12:32:01;9.37;;;2.07;;
18879;SDS011;9572;52.378;13.404;2024-03-17T12:34:31;7.67;;;1.70;;
18879;SDS011;9572;52.378;13.404;2024-03-17T12:36:59;6.10;;;1.40;;
18879;SDS011;9572;52.378;13.404;2024-03-17T12:39:26;6.13;;;1.87;;
18879;SDS011;9572;52.378;13.404;2024-03-17T12:42:03;7.33;;;1.10;;
18879;SDS011;9572;52.378;13.404;2024-03-17T12:44:31;6.43;;;1.03;;
18879;SDS011;9572;52.378;13.404;2024-03-17T12:46:59;4.10;;;1.07;;
18879;SDS011;9572;52.378;13.404;2024-03-17T12:49:26;8.43;;;1.63;;
18879;SDS011;9572;52.378;13.404;2024-03-17T12:51:53;7.53;;;1.40;;
18879;SDS011;9572;52.378;13.404;2024-03-17T12:54:20;6.67;;;1.27;;
18879;SDS011;9572;52.378;13.404;2024-03-17T12:56:49;7.30;;;1.63;;
18879;SDS011;9572;52.378;13.404;2024-03-17T12:59:42;5.13;;;1.10;;
18879;SDS011;9572;52.378;13.404;2024-03-17T13:02:26;5.17;;;1.07;;
18879;SDS011;9572;52.378;13.404;2024-03-17T13:05:07;5.03;;;0.77;;
18879;SDS011;9572;52.378;13.404;2024-03-17T13:07:39;1.20;;;0.60;;
18879;SDS011;9572;52.378;13.404;2024-03-17T13:10:06;5.80;;;1.00;;
18879;SDS011;9572;52.378;13.404;2024-03-17T13:12:33;4.70;;;1.10;;
18879;SDS011;9572;52.378;13.404;2024-03-17T13:15:01;10.17;;;1.33;;
18879;SDS011;9572;52.378;13.404;2024-03-17T13:17:30;3.93;;;1.17;;
18879;SDS011;9572;52.378;13.404;2024-03-17T13:19:58;5.80;;;1.07;;
18879;SDS011;9572;52.378;13.404;2024-03-17T13:22:25;5.27;;;0.73;;
18879;SDS011;9572;52.378;13.404;2024-03-17T13:24:52;6.03;;;1.00;;
18879;SDS011;9572;52.378;13.404;2024-03-17T13:27:19;4.03;;;1.07;;
18879;SDS011;9572;52.378;13.404;2024-03-17T13:29:47;4.22;;;1.15;;
18879;SDS011;9572;52.378;13.404;2024-03-17T13:32:16;3.17;;;0.90;;
18879;SDS011;9572;52.378;13.404;2024-03-17T13:34:43;6.83;;;1.07;;
18879;SDS011;9572;52.378;13.404;2024-03-17T13:37:10;6.77;;;1.03;;
18879;SDS011;9572;52.378;13.404;2024-03-17T13:39:37;3.40;;;0.87;;
18879;SDS011;9572;52.378;13.404;2024-03-17T13:42:04;3.30;;;0.70;;
18879;SDS011;9572;52.378;13.404;2024-03-17T13:44:32;2.73;;;1.00;;
18879;SDS011;9572;52.378;13.404;2024-03-17T13:47:00;4.50;;;0.93;;
18879;SDS011;9572;52.378;13.404;2024-03-17T13:49:29;11.30;;;1.17;;
18879;SDS011;9572;52.378;13.404;2024-03-17T13:51:56;4.67;;;0.90;;
18879;SDS011;9572;52.378;13.404;2024-03-17T13:54:23;2.90;;;0.90;;
18879;SDS011;9572;52.378;13.404;2024-03-17T13:56:50;5.47;;;1.50;;
18879;SDS011;9572;52.378;13.404;2024-03-17T13:59:16;6.43;;;1.13;;
18879;SDS011;9572;52.378;13.404;2024-03-17T14:01:43;5.40;;;1.30;;
18879;SDS011;9572;52.378;13.404;2024-03-17T14:04:12;7.67;;;1.00;;
18879;SDS011;9572;52.378;13.404;2024-03-17T14:06:43;3.83;;;1.00;;
18879;SDS011;9572;52.378;13.404;2024-03-17T14:09:11;6.07;;;1.00;;
18879;SDS011;9572;52.378;13.404;2024-03-17T14:11:38;5.07;;;1.00;;
18879;SDS011;9572;52.378;13.404;2024-03-17T14:14:05;4.73;;;1.23;;
18879;SDS011;9572;52.378;13.404;2024-03-17T14:16:32;5.30;;;1.00;;
18879;SDS011;9572;52.378;13.404;2024-03-17T14:19:00;8.47;;;1.30;;
18879;SDS011;9572;52.378;13.404;2024-03-17T14:21:27;3.90;;;1.00;;
18879;SDS011;9572;52.378;13.404;2024-03-17T14:23:55;1.30;;;0.70;;
18879;SDS011;9572;52.378;13.404;2024-03-17T14:26:22;7.17;;;0.90;;
18879;SDS011;9572;52.378;13.404;2024-03-17T14:28:49;4.07;;;0.73;;
18879;SDS011;9572;52.378;13.404;2024-03-17T14:31:16;4.53;;;1.33;;
18879;SDS011;9572;52.378;13.404;2024-03-17T14:33:43;3.90;;;1.23;;
18879;SDS011;9572;52.378;13.404;2024-03-17T14:36:10;10.67;;;1.30;;
18879;SDS011;9572;52.378;13.404;2024-03-17T14:38:37;3.30;;;0.80;;
18879;SDS011;9572;52.378;13.404;2024-03-17T14:41:05;2.83;;;0.87;;
18879;SDS011;9572;52.378;13.404;2024-03-17T14:43:32;6.27;;;1.30;;
18879;SDS011;9572;52.378;13.404;2024-03-17T14:46:03;4.00;;;1.30;;
18879;SDS011;9572;52.378;13.404;2024-03-17T14:48:30;7.33;;;1.00;;